sensor_id;sensor_type;location;lat;lon;timestamp;temperature;humidity
49379;DHT22;35254;47.990;-1.608;2023-04-25T00:00:25;16.40;66.20
49379;DHT22;35254;47.990;-1.608;2023-04-25T00:02:51;16.30;66.30
49379;DHT22;35254;47.990;-1.608;2023-04-25T00:05:17;16.30;66.30
49379;DHT22;35254;47.990;-1.608;2023-04-25T00:07:42;16.30;66.20
49379;DHT22;35254;47.990;-1.608;2023-04-25T00:10:09;16.30;66.20
49379;DHT22;35254;47.990;-1.608;2023-04-25T00:12:36;16.30;66.20
49379;DHT22;35254;47.990;-1.608;2023-04-25T00:15:02;16.30;66.20
49379;DHT22;35254;47.990;-1.608;2023-04-25T00:17:28;16.30;66.20
49379;DHT22;35254;47.990;-1.608;2023-04-25T00:19:54;16.30;66.20
49379;DHT22;35254;47.990;-1.608;2023-04-25T00:22:20;16.30;66.20
49379;DHT22;35254;47.990;-1.608;2023-04-25T00:24:45;16.30;66.20
49379;DHT22;35254;47.990;-1.608;2023-04-25T00:27:11;16.30;66.20
49379;DHT22;35254;47.990;-1.608;2023-04-25T00:29:37;16.30;66.20
49379;DHT22;35254;47.990;-1.608;2023-04-25T00:32:02;16.30;66.10
49379;DHT22;35254;47.990;-1.608;2023-04-25T00:34:28;16.30;66.10
49379;DHT22;35254;47.990;-1.608;2023-04-25T00:36:54;16.20;66.10
49379;DHT22;35254;47.990;-1.608;2023-04-25T00:39:20;16.30;66.10
49379;DHT22;35254;47.990;-1.608;2023-04-25T00:41:45;16.30;66.10
49379;DHT22;35254;47.990;-1.608;2023-04-25T00:44:12;16.30;66.10
49379;DHT22;35254;47.990;-1.608;2023-04-25T00:46:39;16.20;66.00
49379;DHT22;35254;47.990;-1.608;2023-04-25T00:49:05;16.30;66.10
49379;DHT22;35254;47.990;-1.608;2023-04-25T00:51:30;16.20;66.10
49379;DHT22;35254;47.990;-1.608;2023-04-25T00:53:58;16.20;66.10
49379;DHT22;35254;47.990;-1.608;2023-04-25T00:56:24;16.30;66.10
49379;DHT22;35254;47.990;-1.608;2023-04-25T00:58:53;16.30;66.00
49379;DHT22;35254;47.990;-1.608;2023-04-25T01:01:21;16.20;66.10
49379;DHT22;35254;47.990;-1.608;2023-04-25T01:03:47;16.20;66.10
49379;DHT22;35254;47.990;-1.608;2023-04-25T01:06:12;16.20;66.10
49379;DHT22;35254;47.990;-1.608;2023-04-25T01:08:39;16.20;66.10
49379;DHT22;35254;47.990;-1.608;2023-04-25T01:11:05;16.20;66.10
49379;DHT22;35254;47.990;-1.608;2023-04-25T01:13:32;16.20;66.10
49379;DHT22;35254;47.990;-1.608;2023-04-25T01:15:59;16.20;66.10
49379;DHT22;35254;47.990;-1.608;2023-04-25T01:18:25;16.20;66.10
49379;DHT22;35254;47.990;-1.608;2023-04-25T01:20:51;16.20;66.00
49379;DHT22;35254;47.990;-1.608;2023-04-25T01:23:19;16.20;66.10
49379;DHT22;35254;47.990;-1.608;2023-04-25T01:25:45;16.20;66.10
49379;DHT22;35254;47.990;-1.608;2023-04-25T01:28:12;16.20;66.10
49379;DHT22;35254;47.990;-1.608;2023-04-25T01:30:38;16.20;66.10
49379;DHT22;35254;47.990;-1.608;2023-04-25T01:33:04;16.20;66.10
49379;DHT22;35254;47.990;-1.608;2023-04-25T01:35:31;16.20;66.10
49379;DHT22;35254;47.990;-1.608;2023-04-25T01:37:58;16.10;66.00
49379;DHT22;35254;47.990;-1.608;2023-04-25T01:40:24;16.20;66.00
49379;DHT22;35254;47.990;-1.608;2023-04-25T01:42:50;16.20;66.00
49379;DHT22;35254;47.990;-1.608;2023-04-25T01:45:17;16.20;66.10
49379;DHT22;35254;47.990;-1.608;2023-04-25T01:47:43;16.10;66.10
49379;DHT22;35254;47.990;-1.608;2023-04-25T01:50:09;16.20;66.00
49379;DHT22;35254;47.990;-1.608;2023-04-25T01:52:36;16.20;66.10
49379;DHT22;35254;47.990;-1.608;2023-04-25T01:55:02;16.20;66.10
49379;DHT22;35254;47.990;-1.608;2023-04-25T01:57:28;16.10;66.10
49379;DHT22;35254;47.990;-1.608;2023-04-25T02:00:02;16.20;66.00
49379;DHT22;35254;47.990;-1.608;2023-04-25T02:02:28;16.10;66.10
49379;DHT22;35254;47.990;-1.608;2023-04-25T02:04:54;16.10;66.00
49379;DHT22;35254;47.990;-1.608;2023-04-25T02:07:20;16.10;66.00
49379;DHT22;35254;47.990;-1.608;2023-04-25T02:09:46;16.10;66.10
49379;DHT22;35254;47.990;-1.608;2023-04-25T02:12:11;16.10;66.00
49379;DHT22;35254;47.990;-1.608;2023-04-25T02:14:37;16.10;66.10
49379;DHT22;35254;47.990;-1.608;2023-04-25T02:17:03;16.10;66.10
49379;DHT22;35254;47.990;-1.608;2023-04-25T02:19:28;16.10;66.00
49379;DHT22;35254;47.990;-1.608;2023-04-25T02:21:55;16.10;66.10
49379;DHT22;35254;47.990;-1.608;2023-04-25T02:24:22;16.10;66.10
49379;DHT22;35254;47.990;-1.608;2023-04-25T02:26:48;16.10;66.00
49379;DHT22;35254;47.990;-1.608;2023-04-25T02:29:15;16.10;66.10
49379;DHT22;35254;47.990;-1.608;2023-04-25T02:31:41;16.10;66.00
49379;DHT22;35254;47.990;-1.608;2023-04-25T02:34:06;16.10;66.00
49379;DHT22;35254;47.990;-1.608;2023-04-25T02:36:32;16.10;66.00
49379;DHT22;35254;47.990;-1.608;2023-04-25T02:39:00;16.00;66.00
49379;DHT22;35254;47.990;-1.608;2023-04-25T02:41:26;16.10;66.10
49379;DHT22;35254;47.990;-1.608;2023-04-25T02:43:52;16.10;66.10
49379;DHT22;35254;47.990;-1.608;2023-04-25T02:46:17;16.00;66.00
49379;DHT22;35254;47.990;-1.608;2023-04-25T02:48:43;16.10;66.10
49379;DHT22;35254;47.990;-1.608;2023-04-25T02:51:09;16.00;66.10
49379;DHT22;35254;47.990;-1.608;2023-04-25T02:53:34;16.00;66.00
49379;DHT22;35254;47.990;-1.608;2023-04-25T02:56:00;16.00;66.00
49379;DHT22;35254;47.990;-1.608;2023-04-25T02:58:26;16.00;66.00
49379;DHT22;35254;47.990;-1.608;2023-04-25T03:00:52;16.00;66.10
49379;DHT22;35254;47.990;-1.608;2023-04-25T03:03:17;16.00;66.00
49379;DHT22;35254;47.990;-1.608;2023-04-25T03:05:43;16.10;66.00
49379;DHT22;35254;47.990;-1.608;2023-04-25T03:08:09;16.00;66.10
49379;DHT22;35254;47.990;-1.608;2023-04-25T03:10:35;16.00;65.90
49379;DHT22;35254;47.990;-1.608;2023-04-25T03:13:01;16.00;65.90
49379;DHT22;35254;47.990;-1.608;2023-04-25T03:15:26;16.00;66.00
49379;DHT22;35254;47.990;-1.608;2023-04-25T03:17:52;16.00;65.90
49379;DHT22;35254;47.990;-1.608;2023-04-25T03:20:17;16.00;66.00
49379;DHT22;35254;47.990;-1.608;2023-04-25T03:22:43;16.00;65.80
49379;DHT22;35254;47.990;-1.608;2023-04-25T03:25:09;16.00;65.80
49379;DHT22;35254;47.990;-1.608;2023-04-25T03:27:35;16.00;65.80
49379;DHT22;35254;47.990;-1.608;2023-04-25T03:30:01;16.00;65.80
49379;DHT22;35254;47.990;-1.608;2023-04-25T03:32:26;15.90;65.70
49379;DHT22;35254;47.990;-1.608;2023-04-25T03:34:52;15.90;65.80
49379;DHT22;35254;47.990;-1.608;2023-04-25T03:37:18;16.00;65.80
49379;DHT22;35254;47.990;-1.608;2023-04-25T03:39:43;15.90;65.80
49379;DHT22;35254;47.990;-1.608;2023-04-25T03:42:09;15.90;65.80
49379;DHT22;35254;47.990;-1.608;2023-04-25T03:44:34;15.90;65.70
49379;DHT22;35254;47.990;-1.608;2023-04-25T03:47:00;15.90;65.70
49379;DHT22;35254;47.990;-1.608;2023-04-25T03:49:26;15.90;65.60
49379;DHT22;35254;47.990;-1.608;2023-04-25T03:51:51;15.90;65.60
49379;DHT22;35254;47.990;-1.608;2023-04-25T03:54:17;15.90;65.70
49379;DHT22;35254;47.990;-1.608;2023-04-25T03:56:42;15.90;65.70
49379;DHT22;35254;47.990;-1.608;2023-04-25T03:59:08;15.90;65.70
49379;DHT22;35254;47.990;-1.608;2023-04-25T04:01:34;15.90;65.70
49379;DHT22;35254;47.990;-1.608;2023-04-25T04:03:59;15.90;65.60
49379;DHT22;35254;47.990;-1.608;2023-04-25T04:06:25;15.90;65.70
49379;DHT22;35254;47.990;-1.608;2023-04-25T04:08:51;15.90;65.80
49379;DHT22;35254;47.990;-1.608;2023-04-25T04:11:16;15.80;65.70
49379;DHT22;35254;47.990;-1.608;2023-04-25T04:13:42;15.80;65.70
49379;DHT22;35254;47.990;-1.608;2023-04-25T04:16:07;15.90;65.70
49379;DHT22;35254;47.990;-1.608;2023-04-25T04:18:33;15.80;65.60
49379;DHT22;35254;47.990;-1.608;2023-04-25T04:20:59;15.80;65.70
49379;DHT22;35254;47.990;-1.608;2023-04-25T04:23:25;15.80;65.70
49379;DHT22;35254;47.990;-1.608;2023-04-25T04:25:52;15.90;65.70
49379;DHT22;35254;47.990;-1.608;2023-04-25T04:28:19;15.80;65.70
49379;DHT22;35254;47.990;-1.608;2023-04-25T04:30:45;15.80;65.70
49379;DHT22;35254;47.990;-1.608;2023-04-25T04:33:11;15.80;65.70
49379;DHT22;35254;47.990;-1.608;2023-04-25T04:35:37;15.80;65.60
49379;DHT22;35254;47.990;-1.608;2023-04-25T04:38:03;15.80;65.60
49379;DHT22;35254;47.990;-1.608;2023-04-25T04:40:29;15.80;65.60
49379;DHT22;35254;47.990;-1.608;2023-04-25T04:42:56;15.80;65.60
49379;DHT22;35254;47.990;-1.608;2023-04-25T04:45:23;15.80;65.40
49379;DHT22;35254;47.990;-1.608;2023-04-25T04:47:49;15.80;65.50
49379;DHT22;35254;47.990;-1.608;2023-04-25T04:50:15;15.80;65.60
49379;DHT22;35254;47.990;-1.608;2023-04-25T04:52:42;15.80;65.60
49379;DHT22;35254;47.990;-1.608;2023-04-25T04:55:08;15.80;65.50
49379;DHT22;35254;47.990;-1.608;2023-04-25T04:57:34;15.80;65.60
49379;DHT22;35254;47.990;-1.608;2023-04-25T05:00:00;15.80;65.50
49379;DHT22;35254;47.990;-1.608;2023-04-25T05:02:26;15.70;65.60
49379;DHT22;35254;47.990;-1.608;2023-04-25T05:04:52;15.80;65.60
49379;DHT22;35254;47.990;-1.608;2023-04-25T05:07:18;15.80;65.60
49379;DHT22;35254;47.990;-1.608;2023-04-25T05:09:44;15.70;65.60
49379;DHT22;35254;47.990;-1.608;2023-04-25T05:12:10;15.70;65.60
49379;DHT22;35254;47.990;-1.608;2023-04-25T05:14:35;15.80;65.50
49379;DHT22;35254;47.990;-1.608;2023-04-25T05:17:01;15.70;65.40
49379;DHT22;35254;47.990;-1.608;2023-04-25T05:19:30;15.70;65.40
49379;DHT22;35254;47.990;-1.608;2023-04-25T05:21:55;15.70;65.30
49379;DHT22;35254;47.990;-1.608;2023-04-25T05:24:21;15.70;65.40
49379;DHT22;35254;47.990;-1.608;2023-04-25T05:26:47;15.70;65.40
49379;DHT22;35254;47.990;-1.608;2023-04-25T05:29:12;15.70;65.50
49379;DHT22;35254;47.990;-1.608;2023-04-25T05:31:38;15.70;65.60
49379;DHT22;35254;47.990;-1.608;2023-04-25T05:34:03;15.70;65.60
49379;DHT22;35254;47.990;-1.608;2023-04-25T05:36:29;15.70;65.40
49379;DHT22;35254;47.990;-1.608;2023-04-25T05:38:56;15.70;65.40
49379;DHT22;35254;47.990;-1.608;2023-04-25T05:41:21;15.70;65.30
49379;DHT22;35254;47.990;-1.608;2023-04-25T05:43:47;15.60;65.30
49379;DHT22;35254;47.990;-1.608;2023-04-25T05:46:15;15.70;65.40
49379;DHT22;35254;47.990;-1.608;2023-04-25T05:48:42;15.70;65.40
49379;DHT22;35254;47.990;-1.608;2023-04-25T05:51:08;15.70;65.50
49379;DHT22;35254;47.990;-1.608;2023-04-25T05:53:34;15.70;65.50
49379;DHT22;35254;47.990;-1.608;2023-04-25T05:56:00;15.70;65.50
49379;DHT22;35254;47.990;-1.608;2023-04-25T05:58:26;15.70;65.40
49379;DHT22;35254;47.990;-1.608;2023-04-25T06:00:52;15.60;65.50
49379;DHT22;35254;47.990;-1.608;2023-04-25T06:03:17;15.70;65.40
49379;DHT22;35254;47.990;-1.608;2023-04-25T06:05:43;15.70;65.40
49379;DHT22;35254;47.990;-1.608;2023-04-25T06:08:09;15.60;65.40
49379;DHT22;35254;47.990;-1.608;2023-04-25T06:10:36;15.70;65.50
49379;DHT22;35254;47.990;-1.608;2023-04-25T06:13:02;15.60;65.40
49379;DHT22;35254;47.990;-1.608;2023-04-25T06:15:27;15.60;65.40
49379;DHT22;35254;47.990;-1.608;2023-04-25T06:17:53;15.60;65.40
49379;DHT22;35254;47.990;-1.608;2023-04-25T06:20:18;15.60;65.50
49379;DHT22;35254;47.990;-1.608;2023-04-25T06:22:48;15.60;65.40
49379;DHT22;35254;47.990;-1.608;2023-04-25T06:25:14;15.60;65.40
49379;DHT22;35254;47.990;-1.608;2023-04-25T06:27:40;15.60;65.40
49379;DHT22;35254;47.990;-1.608;2023-04-25T06:30:06;15.60;65.40
49379;DHT22;35254;47.990;-1.608;2023-04-25T06:32:32;15.60;65.40
49379;DHT22;35254;47.990;-1.608;2023-04-25T06:34:59;15.60;65.40
49379;DHT22;35254;47.990;-1.608;2023-04-25T06:37:25;15.60;65.30
49379;DHT22;35254;47.990;-1.608;2023-04-25T06:39:51;15.60;65.30
49379;DHT22;35254;47.990;-1.608;2023-04-25T06:42:16;15.60;65.30
49379;DHT22;35254;47.990;-1.608;2023-04-25T06:44:42;15.60;65.30
49379;DHT22;35254;47.990;-1.608;2023-04-25T06:47:07;15.60;65.20
49379;DHT22;35254;47.990;-1.608;2023-04-25T06:49:33;15.50;65.10
49379;DHT22;35254;47.990;-1.608;2023-04-25T06:51:59;15.60;65.20
49379;DHT22;35254;47.990;-1.608;2023-04-25T06:54:24;15.60;65.20
49379;DHT22;35254;47.990;-1.608;2023-04-25T06:56:52;15.60;65.20
49379;DHT22;35254;47.990;-1.608;2023-04-25T06:59:18;15.60;65.20
49379;DHT22;35254;47.990;-1.608;2023-04-25T07:01:44;15.60;65.20
49379;DHT22;35254;47.990;-1.608;2023-04-25T07:04:09;15.60;65.20
49379;DHT22;35254;47.990;-1.608;2023-04-25T07:06:35;15.50;65.30
49379;DHT22;35254;47.990;-1.608;2023-04-25T07:09:03;15.60;65.20
49379;DHT22;35254;47.990;-1.608;2023-04-25T07:11:30;15.50;65.20
49379;DHT22;35254;47.990;-1.608;2023-04-25T07:13:55;15.50;65.20
49379;DHT22;35254;47.990;-1.608;2023-04-25T07:16:21;15.50;65.20
49379;DHT22;35254;47.990;-1.608;2023-04-25T07:18:46;15.50;65.20
49379;DHT22;35254;47.990;-1.608;2023-04-25T07:21:12;15.60;65.30
49379;DHT22;35254;47.990;-1.608;2023-04-25T07:23:38;15.50;65.40
49379;DHT22;35254;47.990;-1.608;2023-04-25T07:26:06;15.50;65.40
49379;DHT22;35254;47.990;-1.608;2023-04-25T07:28:31;15.50;65.50
49379;DHT22;35254;47.990;-1.608;2023-04-25T07:30:57;15.50;65.40
49379;DHT22;35254;47.990;-1.608;2023-04-25T07:33:23;15.50;65.40
49379;DHT22;35254;47.990;-1.608;2023-04-25T07:35:49;15.50;65.30
49379;DHT22;35254;47.990;-1.608;2023-04-25T07:38:15;15.50;65.30
49379;DHT22;35254;47.990;-1.608;2023-04-25T07:40:41;15.50;65.30
49379;DHT22;35254;47.990;-1.608;2023-04-25T07:43:06;15.50;65.30
49379;DHT22;35254;47.990;-1.608;2023-04-25T07:45:32;15.50;65.30
49379;DHT22;35254;47.990;-1.608;2023-04-25T07:47:58;15.50;65.30
49379;DHT22;35254;47.990;-1.608;2023-04-25T07:50:23;15.50;65.20
49379;DHT22;35254;47.990;-1.608;2023-04-25T07:52:49;15.50;65.20
49379;DHT22;35254;47.990;-1.608;2023-04-25T07:55:15;15.50;65.30
49379;DHT22;35254;47.990;-1.608;2023-04-25T07:57:40;15.50;65.40
49379;DHT22;35254;47.990;-1.608;2023-04-25T08:00:06;15.50;65.50
49379;DHT22;35254;47.990;-1.608;2023-04-25T08:02:35;15.50;65.40
49379;DHT22;35254;47.990;-1.608;2023-04-25T08:05:02;15.50;65.40
49379;DHT22;35254;47.990;-1.608;2023-04-25T08:07:27;15.50;65.40
49379;DHT22;35254;47.990;-1.608;2023-04-25T08:09:54;15.50;65.40
49379;DHT22;35254;47.990;-1.608;2023-04-25T08:12:20;15.50;65.40
49379;DHT22;35254;47.990;-1.608;2023-04-25T08:14:45;15.50;65.50
49379;DHT22;35254;47.990;-1.608;2023-04-25T08:17:11;15.50;65.50
49379;DHT22;35254;47.990;-1.608;2023-04-25T08:19:37;15.50;65.50
49379;DHT22;35254;47.990;-1.608;2023-04-25T08:22:03;15.50;65.40
49379;DHT22;35254;47.990;-1.608;2023-04-25T08:24:28;15.50;65.40
49379;DHT22;35254;47.990;-1.608;2023-04-25T08:26:54;15.50;65.40
49379;DHT22;35254;47.990;-1.608;2023-04-25T08:29:19;15.50;65.50
49379;DHT22;35254;47.990;-1.608;2023-04-25T08:31:45;15.50;65.50
49379;DHT22;35254;47.990;-1.608;2023-04-25T08:34:11;15.50;65.50
49379;DHT22;35254;47.990;-1.608;2023-04-25T08:36:37;15.50;65.40
49379;DHT22;35254;47.990;-1.608;2023-04-25T08:39:02;15.50;65.50
49379;DHT22;35254;47.990;-1.608;2023-04-25T08:41:28;15.50;65.50
49379;DHT22;35254;47.990;-1.608;2023-04-25T08:43:56;15.50;65.50
49379;DHT22;35254;47.990;-1.608;2023-04-25T08:46:23;15.50;65.60
49379;DHT22;35254;47.990;-1.608;2023-04-25T08:48:49;15.50;65.60
49379;DHT22;35254;47.990;-1.608;2023-04-25T08:51:23;15.50;65.60
49379;DHT22;35254;47.990;-1.608;2023-04-25T08:53:53;15.50;65.60
49379;DHT22;35254;47.990;-1.608;2023-04-25T08:56:19;15.50;65.70
49379;DHT22;35254;47.990;-1.608;2023-04-25T08:58:50;15.50;65.60
49379;DHT22;35254;47.990;-1.608;2023-04-25T09:01:16;15.50;65.60
49379;DHT22;35254;47.990;-1.608;2023-04-25T09:03:44;15.50;65.70
49379;DHT22;35254;47.990;-1.608;2023-04-25T09:06:10;15.50;65.80
49379;DHT22;35254;47.990;-1.608;2023-04-25T09:08:37;15.50;65.80
49379;DHT22;35254;47.990;-1.608;2023-04-25T09:11:03;15.50;65.90
49379;DHT22;35254;47.990;-1.608;2023-04-25T09:13:29;15.50;65.80
49379;DHT22;35254;47.990;-1.608;2023-04-25T09:15:56;15.50;65.80
49379;DHT22;35254;47.990;-1.608;2023-04-25T09:18:29;15.50;65.70
49379;DHT22;35254;47.990;-1.608;2023-04-25T09:21:07;15.50;65.70
49379;DHT22;35254;47.990;-1.608;2023-04-25T09:23:46;15.50;65.80
49379;DHT22;35254;47.990;-1.608;2023-04-25T09:26:17;15.50;65.70
49379;DHT22;35254;47.990;-1.608;2023-04-25T09:28:43;15.50;65.80
49379;DHT22;35254;47.990;-1.608;2023-04-25T09:31:12;15.50;65.70
49379;DHT22;35254;47.990;-1.608;2023-04-25T09:33:37;15.50;65.70
49379;DHT22;35254;47.990;-1.608;2023-04-25T09:36:08;15.50;65.70
49379;DHT22;35254;47.990;-1.608;2023-04-25T09:38:44;15.50;65.70
49379;DHT22;35254;47.990;-1.608;2023-04-25T09:41:10;15.50;65.80
49379;DHT22;35254;47.990;-1.608;2023-04-25T09:43:37;15.50;65.80
49379;DHT22;35254;47.990;-1.608;2023-04-25T09:46:07;15.50;65.90
49379;DHT22;35254;47.990;-1.608;2023-04-25T09:48:33;15.50;65.90
49379;DHT22;35254;47.990;-1.608;2023-04-25T09:51:11;15.50;65.90
49379;DHT22;35254;47.990;-1.608;2023-04-25T09:53:41;15.50;65.90
49379;DHT22;35254;47.990;-1.608;2023-04-25T09:56:09;15.50;65.90
49379;DHT22;35254;47.990;-1.608;2023-04-25T09:58:36;15.50;65.90
49379;DHT22;35254;47.990;-1.608;2023-04-25T10:01:05;15.50;65.90
49379;DHT22;35254;47.990;-1.608;2023-04-25T10:03:33;15.50;65.90
49379;DHT22;35254;47.990;-1.608;2023-04-25T10:06:00;15.50;65.90
49379;DHT22;35254;47.990;-1.608;2023-04-25T10:08:31;15.50;66.00
49379;DHT22;35254;47.990;-1.608;2023-04-25T10:11:07;15.50;66.10
49379;DHT22;35254;47.990;-1.608;2023-04-25T10:13:34;15.50;66.10
49379;DHT22;35254;47.990;-1.608;2023-04-25T10:16:02;15.50;66.10
49379;DHT22;35254;47.990;-1.608;2023-04-25T10:18:29;15.50;66.10
49379;DHT22;35254;47.990;-1.608;2023-04-25T10:21:01;15.50;66.00
49379;DHT22;35254;47.990;-1.608;2023-04-25T10:23:27;15.50;66.10
49379;DHT22;35254;47.990;-1.608;2023-04-25T10:25:55;15.50;66.00
49379;DHT22;35254;47.990;-1.608;2023-04-25T10:28:21;15.40;66.00
49379;DHT22;35254;47.990;-1.608;2023-04-25T10:31:03;15.50;66.00
49379;DHT22;35254;47.990;-1.608;2023-04-25T10:33:39;15.50;66.00
49379;DHT22;35254;47.990;-1.608;2023-04-25T10:36:14;15.50;66.10
49379;DHT22;35254;47.990;-1.608;2023-04-25T10:38:42;15.50;66.20
49379;DHT22;35254;47.990;-1.608;2023-04-25T10:41:09;15.50;66.20
49379;DHT22;35254;47.990;-1.608;2023-04-25T10:48:47;15.50;66.40
49379;DHT22;35254;47.990;-1.608;2023-04-25T10:51:32;15.50;66.30
49379;DHT22;35254;47.990;-1.608;2023-04-25T10:54:02;15.50;66.30
49379;DHT22;35254;47.990;-1.608;2023-04-25T10:56:33;15.40;66.40
49379;DHT22;35254;47.990;-1.608;2023-04-25T11:04:05;15.40;66.40
49379;DHT22;35254;47.990;-1.608;2023-04-25T11:06:35;15.40;66.40
49379;DHT22;35254;47.990;-1.608;2023-04-25T11:09:03;15.50;66.40
49379;DHT22;35254;47.990;-1.608;2023-04-25T11:11:36;15.50;66.40
49379;DHT22;35254;47.990;-1.608;2023-04-25T11:14:02;15.50;66.40
49379;DHT22;35254;47.990;-1.608;2023-04-25T11:16:28;15.50;66.50
49379;DHT22;35254;47.990;-1.608;2023-04-25T11:18:56;15.40;66.40
49379;DHT22;35254;47.990;-1.608;2023-04-25T11:21:22;15.50;66.40
49379;DHT22;35254;47.990;-1.608;2023-04-25T11:23:48;15.50;66.40
49379;DHT22;35254;47.990;-1.608;2023-04-25T11:26:13;15.40;66.40
49379;DHT22;35254;47.990;-1.608;2023-04-25T11:28:40;15.40;66.40
49379;DHT22;35254;47.990;-1.608;2023-04-25T11:31:06;15.50;66.40
49379;DHT22;35254;47.990;-1.608;2023-04-25T11:33:32;15.50;66.40
49379;DHT22;35254;47.990;-1.608;2023-04-25T11:35:58;15.50;66.50
49379;DHT22;35254;47.990;-1.608;2023-04-25T11:38:24;15.40;66.40
49379;DHT22;35254;47.990;-1.608;2023-04-25T11:40:52;15.50;66.50
49379;DHT22;35254;47.990;-1.608;2023-04-25T11:43:20;15.50;66.60
49379;DHT22;35254;47.990;-1.608;2023-04-25T11:45:49;15.50;66.60
49379;DHT22;35254;47.990;-1.608;2023-04-25T11:48:16;15.50;66.60
49379;DHT22;35254;47.990;-1.608;2023-04-25T11:50:42;15.40;66.50
49379;DHT22;35254;47.990;-1.608;2023-04-25T11:53:08;15.50;66.50
49379;DHT22;35254;47.990;-1.608;2023-04-25T11:55:34;15.50;66.60
49379;DHT22;35254;47.990;-1.608;2023-04-25T11:58:00;15.50;66.70
49379;DHT22;35254;47.990;-1.608;2023-04-25T12:00:26;15.50;66.60
49379;DHT22;35254;47.990;-1.608;2023-04-25T12:02:54;15.50;66.60
49379;DHT22;35254;47.990;-1.608;2023-04-25T12:05:23;15.50;66.60
49379;DHT22;35254;47.990;-1.608;2023-04-25T12:07:49;15.50;66.60
49379;DHT22;35254;47.990;-1.608;2023-04-25T12:10:18;15.40;66.70
49379;DHT22;35254;47.990;-1.608;2023-04-25T12:12:45;15.40;66.70
49379;DHT22;35254;47.990;-1.608;2023-04-25T12:15:16;15.50;66.70
49379;DHT22;35254;47.990;-1.608;2023-04-25T12:17:51;15.50;66.70
49379;DHT22;35254;47.990;-1.608;2023-04-25T12:20:19;15.50;66.70
49379;DHT22;35254;47.990;-1.608;2023-04-25T12:22:48;15.40;66.70
49379;DHT22;35254;47.990;-1.608;2023-04-25T12:25:40;15.50;66.70
49379;DHT22;35254;47.990;-1.608;2023-04-25T12:28:21;15.50;66.70
49379;DHT22;35254;47.990;-1.608;2023-04-25T12:31:05;15.50;66.70
49379;DHT22;35254;47.990;-1.608;2023-04-25T12:33:34;15.50;66.80
49379;DHT22;35254;47.990;-1.608;2023-04-25T12:36:01;15.50;66.90
49379;DHT22;35254;47.990;-1.608;2023-04-25T12:38:36;15.50;66.80
49379;DHT22;35254;47.990;-1.608;2023-04-25T12:41:02;15.40;66.80
49379;DHT22;35254;47.990;-1.608;2023-04-25T12:43:28;15.50;66.80
49379;DHT22;35254;47.990;-1.608;2023-04-25T12:45:55;15.50;66.80
49379;DHT22;35254;47.990;-1.608;2023-04-25T12:48:22;15.50;66.80
49379;DHT22;35254;47.990;-1.608;2023-04-25T12:50:48;15.50;66.90
49379;DHT22;35254;47.990;-1.608;2023-04-25T12:53:22;15.50;66.90
49379;DHT22;35254;47.990;-1.608;2023-04-25T12:55:48;15.50;66.90
49379;DHT22;35254;47.990;-1.608;2023-04-25T12:58:14;15.50;66.90
49379;DHT22;35254;47.990;-1.608;2023-04-25T13:00:40;15.40;66.90
49379;DHT22;35254;47.990;-1.608;2023-04-25T13:03:07;15.50;67.00
49379;DHT22;35254;47.990;-1.608;2023-04-25T13:05:33;15.50;67.00
49379;DHT22;35254;47.990;-1.608;2023-04-25T13:07:59;15.50;66.90
49379;DHT22;35254;47.990;-1.608;2023-04-25T13:10:24;15.50;67.00
49379;DHT22;35254;47.990;-1.608;2023-04-25T13:12:50;15.50;67.00
49379;DHT22;35254;47.990;-1.608;2023-04-25T13:15:16;15.50;67.00
49379;DHT22;35254;47.990;-1.608;2023-04-25T13:17:42;15.50;67.00
49379;DHT22;35254;47.990;-1.608;2023-04-25T13:20:08;15.50;66.90
49379;DHT22;35254;47.990;-1.608;2023-04-25T13:22:38;15.50;67.10
49379;DHT22;35254;47.990;-1.608;2023-04-25T13:25:05;15.40;67.00
49379;DHT22;35254;47.990;-1.608;2023-04-25T13:27:31;15.50;67.00
49379;DHT22;35254;47.990;-1.608;2023-04-25T13:29:58;15.50;67.00
49379;DHT22;35254;47.990;-1.608;2023-04-25T13:32:24;15.50;67.00
49379;DHT22;35254;47.990;-1.608;2023-04-25T13:34:51;15.50;67.00
49379;DHT22;35254;47.990;-1.608;2023-04-25T13:37:16;15.50;67.00
49379;DHT22;35254;47.990;-1.608;2023-04-25T13:39:42;15.50;67.00
49379;DHT22;35254;47.990;-1.608;2023-04-25T13:42:08;15.40;67.00
49379;DHT22;35254;47.990;-1.608;2023-04-25T13:44:33;15.50;66.90
49379;DHT22;35254;47.990;-1.608;2023-04-25T13:46:59;15.50;66.90
49379;DHT22;35254;47.990;-1.608;2023-04-25T13:49:26;15.50;67.00
49379;DHT22;35254;47.990;-1.608;2023-04-25T13:51:52;15.50;67.00
49379;DHT22;35254;47.990;-1.608;2023-04-25T13:54:17;15.50;67.00
49379;DHT22;35254;47.990;-1.608;2023-04-25T13:56:43;15.50;67.00
49379;DHT22;35254;47.990;-1.608;2023-04-25T13:59:08;15.50;67.00
49379;DHT22;35254;47.990;-1.608;2023-04-25T14:01:34;15.50;67.00
49379;DHT22;35254;47.990;-1.608;2023-04-25T14:04:01;15.50;67.00
49379;DHT22;35254;47.990;-1.608;2023-04-25T14:06:27;15.50;67.00
49379;DHT22;35254;47.990;-1.608;2023-04-25T14:08:53;15.50;67.00
49379;DHT22;35254;47.990;-1.608;2023-04-25T14:11:19;15.50;67.10
49379;DHT22;35254;47.990;-1.608;2023-04-25T14:13:46;15.50;67.10
49379;DHT22;35254;47.990;-1.608;2023-04-25T14:16:11;15.50;67.20
49379;DHT22;35254;47.990;-1.608;2023-04-25T14:18:37;15.50;67.20
49379;DHT22;35254;47.990;-1.608;2023-04-25T14:21:02;15.50;67.20
49379;DHT22;35254;47.990;-1.608;2023-04-25T14:23:28;15.50;67.20
49379;DHT22;35254;47.990;-1.608;2023-04-25T14:25:54;15.50;67.20
49379;DHT22;35254;47.990;-1.608;2023-04-25T14:28:19;15.50;67.20
49379;DHT22;35254;47.990;-1.608;2023-04-25T14:30:45;15.50;67.20
49379;DHT22;35254;47.990;-1.608;2023-04-25T14:33:11;15.50;67.30
49379;DHT22;35254;47.990;-1.608;2023-04-25T14:35:37;15.50;67.20
49379;DHT22;35254;47.990;-1.608;2023-04-25T14:38:03;15.50;67.30
49379;DHT22;35254;47.990;-1.608;2023-04-25T14:40:28;15.50;67.20
49379;DHT22;35254;47.990;-1.608;2023-04-25T14:42:54;15.50;67.30
49379;DHT22;35254;47.990;-1.608;2023-04-25T14:45:20;15.50;67.30
49379;DHT22;35254;47.990;-1.608;2023-04-25T14:47:46;15.50;67.20
49379;DHT22;35254;47.990;-1.608;2023-04-25T14:50:11;15.50;67.20
49379;DHT22;35254;47.990;-1.608;2023-04-25T14:52:37;15.50;67.20
49379;DHT22;35254;47.990;-1.608;2023-04-25T14:55:03;15.50;67.30
49379;DHT22;35254;47.990;-1.608;2023-04-25T14:57:33;15.50;67.20
49379;DHT22;35254;47.990;-1.608;2023-04-25T14:59:59;15.50;67.30
49379;DHT22;35254;47.990;-1.608;2023-04-25T15:02:26;15.50;67.20
49379;DHT22;35254;47.990;-1.608;2023-04-25T15:04:52;15.50;67.20
49379;DHT22;35254;47.990;-1.608;2023-04-25T15:07:17;15.50;67.20
49379;DHT22;35254;47.990;-1.608;2023-04-25T15:09:43;15.50;67.30
49379;DHT22;35254;47.990;-1.608;2023-04-25T15:12:09;15.50;67.30
49379;DHT22;35254;47.990;-1.608;2023-04-25T15:14:35;15.50;67.30
49379;DHT22;35254;47.990;-1.608;2023-04-25T15:17:01;15.60;67.30
49379;DHT22;35254;47.990;-1.608;2023-04-25T15:19:27;15.50;67.30
49379;DHT22;35254;47.990;-1.608;2023-04-25T15:21:53;15.50;67.30